sensor_id;sensor_type;location;lat;lon;timestamp;temperature;humidity
52543;DHT22;38449;52.696;6.186;2022-11-15T00:00:52;7.50;99.90
52543;DHT22;38449;52.696;6.186;2022-11-15T00:03:21;7.50;99.90
52543;DHT22;38449;52.696;6.186;2022-11-15T00:05:47;7.50;99.90
52543;DHT22;38449;52.696;6.186;2022-11-15T00:08:13;7.60;99.90
52543;DHT22;38449;52.696;6.186;2022-11-15T00:10:39;7.50;99.90
52543;DHT22;38449;52.696;6.186;2022-11-15T00:13:12;7.50;99.90
52543;DHT22;38449;52.696;6.186;2022-11-15T00:15:41;7.60;99.90
52543;DHT22;38449;52.696;6.186;2022-11-15T00:18:14;7.60;99.90
52543;DHT22;38449;52.696;6.186;2022-11-15T00:20:40;7.60;99.90
52543;DHT22;38449;52.696;6.186;2022-11-15T00:23:06;7.60;99.90
52543;DHT22;38449;52.696;6.186;2022-11-15T00:25:32;7.50;99.90
52543;DHT22;38449;52.696;6.186;2022-11-15T00:27:59;7.50;99.90
52543;DHT22;38449;52.696;6.186;2022-11-15T00:30:25;7.50;99.90
52543;DHT22;38449;52.696;6.186;2022-11-15T00:32:51;7.50;99.90
52543;DHT22;38449;52.696;6.186;2022-11-15T00:35:17;7.50;99.90
52543;DHT22;38449;52.696;6.186;2022-11-15T00:37:43;7.50;99.90
52543;DHT22;38449;52.696;6.186;2022-11-15T00:40:10;7.50;99.90
52543;DHT22;38449;52.696;6.186;2022-11-15T00:42:35;7.50;99.90
52543;DHT22;38449;52.696;6.186;2022-11-15T00:45:01;7.50;99.90
52543;DHT22;38449;52.696;6.186;2022-11-15T00:47:27;7.50;99.90
52543;DHT22;38449;52.696;6.186;2022-11-15T00:49:52;7.50;99.90
52543;DHT22;38449;52.696;6.186;2022-11-15T00:52:18;7.50;99.90
52543;DHT22;38449;52.696;6.186;2022-11-15T00:54:44;7.50;99.90
52543;DHT22;38449;52.696;6.186;2022-11-15T00:57:09;7.50;99.90
52543;DHT22;38449;52.696;6.186;2022-11-15T00:59:35;7.40;99.90
52543;DHT22;38449;52.696;6.186;2022-11-15T01:02:01;7.40;99.90
52543;DHT22;38449;52.696;6.186;2022-11-15T01:04:26;7.50;99.90
52543;DHT22;38449;52.696;6.186;2022-11-15T01:06:52;7.40;99.90
52543;DHT22;38449;52.696;6.186;2022-11-15T01:09:18;7.50;99.90
52543;DHT22;38449;52.696;6.186;2022-11-15T01:11:43;7.50;99.90
52543;DHT22;38449;52.696;6.186;2022-11-15T01:14:09;7.50;99.90
52543;DHT22;38449;52.696;6.186;2022-11-15T01:16:34;7.50;99.90
52543;DHT22;38449;52.696;6.186;2022-11-15T01:19:00;7.60;99.90
52543;DHT22;38449;52.696;6.186;2022-11-15T01:21:26;7.60;99.90
52543;DHT22;38449;52.696;6.186;2022-11-15T01:23:56;7.60;99.90
52543;DHT22;38449;52.696;6.186;2022-11-15T01:26:22;7.60;99.90
52543;DHT22;38449;52.696;6.186;2022-11-15T01:28:48;7.60;99.90
52543;DHT22;38449;52.696;6.186;2022-11-15T01:31:19;7.60;99.90
52543;DHT22;38449;52.696;6.186;2022-11-15T01:33:46;7.70;99.90
52543;DHT22;38449;52.696;6.186;2022-11-15T01:36:14;7.70;99.90
52543;DHT22;38449;52.696;6.186;2022-11-15T01:38:40;7.70;99.90
52543;DHT22;38449;52.696;6.186;2022-11-15T01:41:05;7.70;99.90
52543;DHT22;38449;52.696;6.186;2022-11-15T01:43:33;7.70;99.90
52543;DHT22;38449;52.696;6.186;2022-11-15T01:46:06;7.70;99.90
52543;DHT22;38449;52.696;6.186;2022-11-15T01:48:39;7.70;99.90
52543;DHT22;38449;52.696;6.186;2022-11-15T01:51:09;7.70;99.90
52543;DHT22;38449;52.696;6.186;2022-11-15T01:53:39;7.70;99.90
52543;DHT22;38449;52.696;6.186;2022-11-15T01:56:08;7.70;99.90
52543;DHT22;38449;52.696;6.186;2022-11-15T01:58:35;7.80;99.90
52543;DHT22;38449;52.696;6.186;2022-11-15T02:01:01;7.70;99.90
52543;DHT22;38449;52.696;6.186;2022-11-15T02:03:33;7.80;99.90
52543;DHT22;38449;52.696;6.186;2022-11-15T02:05:59;7.80;99.90
52543;DHT22;38449;52.696;6.186;2022-11-15T02:08:25;7.80;99.90
52543;DHT22;38449;52.696;6.186;2022-11-15T02:10:51;7.80;99.90
52543;DHT22;38449;52.696;6.186;2022-11-15T02:13:17;7.80;99.90
52543;DHT22;38449;52.696;6.186;2022-11-15T02:18:32;7.90;99.90
52543;DHT22;38449;52.696;6.186;2022-11-15T02:21:06;7.90;99.90
52543;DHT22;38449;52.696;6.186;2022-11-15T02:26:44;7.90;99.90
52543;DHT22;38449;52.696;6.186;2022-11-15T02:32:20;7.90;99.90
52543;DHT22;38449;52.696;6.186;2022-11-15T02:35:16;7.90;99.90
52543;DHT22;38449;52.696;6.186;2022-11-15T02:37:55;8.00;99.90
52543;DHT22;38449;52.696;6.186;2022-11-15T02:40:35;8.00;99.90
52543;DHT22;38449;52.696;6.186;2022-11-15T02:43:18;8.00;99.90
52543;DHT22;38449;52.696;6.186;2022-11-15T02:46:14;8.00;99.90
52543;DHT22;38449;52.696;6.186;2022-11-15T02:48:43;8.10;99.90
52543;DHT22;38449;52.696;6.186;2022-11-15T02:51:10;8.10;99.90
52543;DHT22;38449;52.696;6.186;2022-11-15T02:53:37;8.10;99.90
52543;DHT22;38449;52.696;6.186;2022-11-15T02:56:03;8.20;99.90
52543;DHT22;38449;52.696;6.186;2022-11-15T02:58:45;8.20;99.90
52543;DHT22;38449;52.696;6.186;2022-11-15T03:04:02;8.20;99.90
52543;DHT22;38449;52.696;6.186;2022-11-15T03:12:38;8.30;99.90
52543;DHT22;38449;52.696;6.186;2022-11-15T03:15:19;8.30;99.90
52543;DHT22;38449;52.696;6.186;2022-11-15T03:18:15;8.40;99.90
52543;DHT22;38449;52.696;6.186;2022-11-15T03:20:44;8.40;99.90
52543;DHT22;38449;52.696;6.186;2022-11-15T03:23:11;8.40;99.90
52543;DHT22;38449;52.696;6.186;2022-11-15T03:25:41;8.40;99.90
52543;DHT22;38449;52.696;6.186;2022-11-15T03:28:11;8.50;99.90
52543;DHT22;38449;52.696;6.186;2022-11-15T03:30:38;8.50;99.90
52543;DHT22;38449;52.696;6.186;2022-11-15T03:33:05;8.50;99.90
52543;DHT22;38449;52.696;6.186;2022-11-15T03:35:38;8.50;99.90
52543;DHT22;38449;52.696;6.186;2022-11-15T03:38:24;8.50;99.90
52543;DHT22;38449;52.696;6.186;2022-11-15T03:41:03;8.60;99.90
52543;DHT22;38449;52.696;6.186;2022-11-15T03:43:42;8.60;99.90
52543;DHT22;38449;52.696;6.186;2022-11-15T03:46:33;8.70;99.90
52543;DHT22;38449;52.696;6.186;2022-11-15T03:49:14;8.70;99.90
52543;DHT22;38449;52.696;6.186;2022-11-15T03:51:41;8.70;99.90
52543;DHT22;38449;52.696;6.186;2022-11-15T03:54:07;8.70;99.90
52543;DHT22;38449;52.696;6.186;2022-11-15T03:56:32;8.70;99.90
52543;DHT22;38449;52.696;6.186;2022-11-15T03:58:58;8.80;99.90
52543;DHT22;38449;52.696;6.186;2022-11-15T04:01:23;8.80;99.90
52543;DHT22;38449;52.696;6.186;2022-11-15T04:03:49;8.80;99.90
52543;DHT22;38449;52.696;6.186;2022-11-15T04:06:15;8.80;99.90
52543;DHT22;38449;52.696;6.186;2022-11-15T04:08:40;8.80;99.90
52543;DHT22;38449;52.696;6.186;2022-11-15T04:11:06;8.90;99.90
52543;DHT22;38449;52.696;6.186;2022-11-15T04:13:32;8.90;99.90
52543;DHT22;38449;52.696;6.186;2022-11-15T04:15:58;8.90;99.90
52543;DHT22;38449;52.696;6.186;2022-11-15T04:18:23;8.90;99.90
52543;DHT22;38449;52.696;6.186;2022-11-15T04:20:50;9.00;99.90
52543;DHT22;38449;52.696;6.186;2022-11-15T04:23:35;9.00;99.90
52543;DHT22;38449;52.696;6.186;2022-11-15T04:26:21;9.00;99.90
52543;DHT22;38449;52.696;6.186;2022-11-15T04:28:47;9.10;99.90
52543;DHT22;38449;52.696;6.186;2022-11-15T04:31:31;9.10;99.90
52543;DHT22;38449;52.696;6.186;2022-11-15T04:33:57;9.10;99.90
52543;DHT22;38449;52.696;6.186;2022-11-15T04:36:23;9.10;99.90
52543;DHT22;38449;52.696;6.186;2022-11-15T04:39:08;9.20;99.90
52543;DHT22;38449;52.696;6.186;2022-11-15T04:41:33;9.10;99.90
52543;DHT22;38449;52.696;6.186;2022-11-15T04:43:59;9.20;99.90
52543;DHT22;38449;52.696;6.186;2022-11-15T04:46:25;9.20;99.90
52543;DHT22;38449;52.696;6.186;2022-11-15T04:48:51;9.20;99.90
52543;DHT22;38449;52.696;6.186;2022-11-15T04:51:17;9.20;99.90
52543;DHT22;38449;52.696;6.186;2022-11-15T04:53:42;9.20;99.90
52543;DHT22;38449;52.696;6.186;2022-11-15T04:56:08;9.30;99.90
52543;DHT22;38449;52.696;6.186;2022-11-15T04:58:34;9.30;99.90
52543;DHT22;38449;52.696;6.186;2022-11-15T05:01:11;9.30;99.90
52543;DHT22;38449;52.696;6.186;2022-11-15T05:03:39;9.40;99.90
52543;DHT22;38449;52.696;6.186;2022-11-15T05:06:23;9.40;99.90
52543;DHT22;38449;52.696;6.186;2022-11-15T05:08:48;9.30;99.90
52543;DHT22;38449;52.696;6.186;2022-11-15T05:11:14;9.40;99.90
52543;DHT22;38449;52.696;6.186;2022-11-15T05:13:39;9.40;99.90
52543;DHT22;38449;52.696;6.186;2022-11-15T05:16:05;9.40;99.90
52543;DHT22;38449;52.696;6.186;2022-11-15T05:18:31;9.40;99.90
52543;DHT22;38449;52.696;6.186;2022-11-15T05:21:03;9.50;99.90
52543;DHT22;38449;52.696;6.186;2022-11-15T05:23:29;9.50;99.90
52543;DHT22;38449;52.696;6.186;2022-11-15T05:26:02;9.50;99.90
52543;DHT22;38449;52.696;6.186;2022-11-15T05:28:28;9.60;99.90
52543;DHT22;38449;52.696;6.186;2022-11-15T05:30:59;9.60;99.90
52543;DHT22;38449;52.696;6.186;2022-11-15T05:33:25;9.60;99.90
52543;DHT22;38449;52.696;6.186;2022-11-15T05:35:55;9.60;99.90
52543;DHT22;38449;52.696;6.186;2022-11-15T05:38:24;9.60;99.90
52543;DHT22;38449;52.696;6.186;2022-11-15T05:40:49;9.70;99.90
52543;DHT22;38449;52.696;6.186;2022-11-15T05:43:15;9.70;99.90
52543;DHT22;38449;52.696;6.186;2022-11-15T05:45:41;9.70;99.90
52543;DHT22;38449;52.696;6.186;2022-11-15T05:48:08;9.70;99.90
52543;DHT22;38449;52.696;6.186;2022-11-15T05:50:37;9.80;99.90
52543;DHT22;38449;52.696;6.186;2022-11-15T05:53:04;9.80;99.90
52543;DHT22;38449;52.696;6.186;2022-11-15T05:55:31;9.80;99.90
52543;DHT22;38449;52.696;6.186;2022-11-15T05:57:59;9.90;99.90
52543;DHT22;38449;52.696;6.186;2022-11-15T06:00:25;9.90;99.90
52543;DHT22;38449;52.696;6.186;2022-11-15T06:02:51;9.90;99.90
52543;DHT22;38449;52.696;6.186;2022-11-15T06:05:16;9.90;99.90
52543;DHT22;38449;52.696;6.186;2022-11-15T06:07:42;9.90;99.90
52543;DHT22;38449;52.696;6.186;2022-11-15T06:10:09;10.00;99.90
52543;DHT22;38449;52.696;6.186;2022-11-15T06:12:35;10.00;99.90
52543;DHT22;38449;52.696;6.186;2022-11-15T06:15:00;10.00;99.90
52543;DHT22;38449;52.696;6.186;2022-11-15T06:17:26;10.00;99.90
52543;DHT22;38449;52.696;6.186;2022-11-15T06:19:51;10.00;99.90
52543;DHT22;38449;52.696;6.186;2022-11-15T06:22:17;10.10;99.90
52543;DHT22;38449;52.696;6.186;2022-11-15T06:24:42;10.10;99.90
52543;DHT22;38449;52.696;6.186;2022-11-15T06:27:10;10.10;99.90
52543;DHT22;38449;52.696;6.186;2022-11-15T06:29:36;10.10;99.90
52543;DHT22;38449;52.696;6.186;2022-11-15T06:32:01;10.10;99.90
52543;DHT22;38449;52.696;6.186;2022-11-15T06:34:27;10.10;99.90
52543;DHT22;38449;52.696;6.186;2022-11-15T06:36:53;10.10;99.90
52543;DHT22;38449;52.696;6.186;2022-11-15T06:39:18;10.10;99.90
52543;DHT22;38449;52.696;6.186;2022-11-15T06:41:44;10.20;99.90
52543;DHT22;38449;52.696;6.186;2022-11-15T06:44:09;10.20;99.90
52543;DHT22;38449;52.696;6.186;2022-11-15T06:46:35;10.20;99.90
52543;DHT22;38449;52.696;6.186;2022-11-15T06:49:01;10.20;99.90
52543;DHT22;38449;52.696;6.186;2022-11-15T06:51:26;10.20;99.90
52543;DHT22;38449;52.696;6.186;2022-11-15T06:53:52;10.20;99.90
52543;DHT22;38449;52.696;6.186;2022-11-15T06:56:17;10.20;99.90
52543;DHT22;38449;52.696;6.186;2022-11-15T06:58:43;10.30;99.90
52543;DHT22;38449;52.696;6.186;2022-11-15T07:01:10;10.30;99.90
52543;DHT22;38449;52.696;6.186;2022-11-15T07:03:37;10.30;99.90
52543;DHT22;38449;52.696;6.186;2022-11-15T07:06:04;10.30;99.90
52543;DHT22;38449;52.696;6.186;2022-11-15T07:08:30;10.30;99.90
52543;DHT22;38449;52.696;6.186;2022-11-15T07:11:00;10.30;99.90
52543;DHT22;38449;52.696;6.186;2022-11-15T07:13:28;10.30;99.90
52543;DHT22;38449;52.696;6.186;2022-11-15T07:15:54;10.40;99.90
52543;DHT22;38449;52.696;6.186;2022-11-15T07:18:20;10.40;99.90
52543;DHT22;38449;52.696;6.186;2022-11-15T07:20:46;10.40;99.90
52543;DHT22;38449;52.696;6.186;2022-11-15T07:23:11;10.40;99.90
52543;DHT22;38449;52.696;6.186;2022-11-15T07:25:37;10.40;99.90
52543;DHT22;38449;52.696;6.186;2022-11-15T07:28:03;10.50;99.90
52543;DHT22;38449;52.696;6.186;2022-11-15T07:30:29;10.50;99.90
52543;DHT22;38449;52.696;6.186;2022-11-15T07:32:56;10.50;99.90
52543;DHT22;38449;52.696;6.186;2022-11-15T07:35:23;10.50;99.90
52543;DHT22;38449;52.696;6.186;2022-11-15T07:37:59;10.50;99.90
52543;DHT22;38449;52.696;6.186;2022-11-15T07:40:30;10.50;99.90
52543;DHT22;38449;52.696;6.186;2022-11-15T07:43:05;10.50;99.90
52543;DHT22;38449;52.696;6.186;2022-11-15T07:45:31;10.50;99.90
52543;DHT22;38449;52.696;6.186;2022-11-15T07:47:58;10.60;99.90
52543;DHT22;38449;52.696;6.186;2022-11-15T07:50:24;10.50;99.90
52543;DHT22;38449;52.696;6.186;2022-11-15T07:52:58;10.50;99.90
52543;DHT22;38449;52.696;6.186;2022-11-15T07:55:26;10.50;99.90
52543;DHT22;38449;52.696;6.186;2022-11-15T07:58:06;10.50;99.90
52543;DHT22;38449;52.696;6.186;2022-11-15T08:00:32;10.50;99.90
52543;DHT22;38449;52.696;6.186;2022-11-15T08:03:06;10.60;99.90
52543;DHT22;38449;52.696;6.186;2022-11-15T08:05:33;10.60;99.90
52543;DHT22;38449;52.696;6.186;2022-11-15T08:07:59;10.60;99.90
52543;DHT22;38449;52.696;6.186;2022-11-15T08:10:26;10.70;99.90
52543;DHT22;38449;52.696;6.186;2022-11-15T08:13:06;10.70;99.90
52543;DHT22;38449;52.696;6.186;2022-11-15T08:15:32;10.80;99.90
52543;DHT22;38449;52.696;6.186;2022-11-15T08:18:00;10.80;99.90
52543;DHT22;38449;52.696;6.186;2022-11-15T08:20:28;10.90;99.90
52543;DHT22;38449;52.696;6.186;2022-11-15T08:22:55;10.90;99.90
52543;DHT22;38449;52.696;6.186;2022-11-15T08:25:22;10.90;99.90
52543;DHT22;38449;52.696;6.186;2022-11-15T08:27:47;10.90;99.90
52543;DHT22;38449;52.696;6.186;2022-11-15T08:30:16;10.90;99.90
52543;DHT22;38449;52.696;6.186;2022-11-15T08:32:41;11.00;99.90
52543;DHT22;38449;52.696;6.186;2022-11-15T08:35:07;10.90;99.90
52543;DHT22;38449;52.696;6.186;2022-11-15T08:37:35;10.90;99.90
52543;DHT22;38449;52.696;6.186;2022-11-15T08:40:01;10.90;99.90
52543;DHT22;38449;52.696;6.186;2022-11-15T08:42:27;11.00;99.90
52543;DHT22;38449;52.696;6.186;2022-11-15T08:44:52;11.00;99.90
52543;DHT22;38449;52.696;6.186;2022-11-15T08:47:18;11.10;99.90
52543;DHT22;38449;52.696;6.186;2022-11-15T08:49:43;11.10;99.90
52543;DHT22;38449;52.696;6.186;2022-11-15T08:52:09;11.10;99.90
52543;DHT22;38449;52.696;6.186;2022-11-15T08:54:35;11.10;99.90
52543;DHT22;38449;52.696;6.186;2022-11-15T08:57:00;11.10;99.90
52543;DHT22;38449;52.696;6.186;2022-11-15T08:59:26;11.10;99.90
52543;DHT22;38449;52.696;6.186;2022-11-15T09:01:51;11.20;99.90
52543;DHT22;38449;52.696;6.186;2022-11-15T09:04:17;11.20;99.90
52543;DHT22;38449;52.696;6.186;2022-11-15T09:06:43;11.20;99.90
52543;DHT22;38449;52.696;6.186;2022-11-15T09:09:08;11.30;99.90
52543;DHT22;38449;52.696;6.186;2022-11-15T09:11:34;11.30;99.90
52543;DHT22;38449;52.696;6.186;2022-11-15T09:14:00;11.40;99.90
52543;DHT22;38449;52.696;6.186;2022-11-15T09:16:25;11.40;99.90
52543;DHT22;38449;52.696;6.186;2022-11-15T09:18:51;11.40;99.90
52543;DHT22;38449;52.696;6.186;2022-11-15T09:21:17;11.40;99.90
52543;DHT22;38449;52.696;6.186;2022-11-15T09:23:43;11.40;99.90
52543;DHT22;38449;52.696;6.186;2022-11-15T09:26:08;11.40;99.90
52543;DHT22;38449;52.696;6.186;2022-11-15T09:28:34;11.40;99.90
52543;DHT22;38449;52.696;6.186;2022-11-15T09:31:04;11.40;99.90
52543;DHT22;38449;52.696;6.186;2022-11-15T09:33:30;11.40;99.90
52543;DHT22;38449;52.696;6.186;2022-11-15T09:36:04;11.40;99.90
52543;DHT22;38449;52.696;6.186;2022-11-15T09:38:31;11.50;99.90
52543;DHT22;38449;52.696;6.186;2022-11-15T09:41:30;11.40;99.90
52543;DHT22;38449;52.696;6.186;2022-11-15T09:46:59;11.50;99.90
52543;DHT22;38449;52.696;6.186;2022-11-15T09:49:26;11.50;99.90
52543;DHT22;38449;52.696;6.186;2022-11-15T09:51:53;11.50;99.90
52543;DHT22;38449;52.696;6.186;2022-11-15T09:54:35;11.50;99.90
52543;DHT22;38449;52.696;6.186;2022-11-15T09:57:05;11.50;99.90
52543;DHT22;38449;52.696;6.186;2022-11-15T09:59:52;11.60;99.90
52543;DHT22;38449;52.696;6.186;2022-11-15T10:02:43;11.60;99.90
52543;DHT22;38449;52.696;6.186;2022-11-15T10:05:14;11.60;99.90
52543;DHT22;38449;52.696;6.186;2022-11-15T10:07:50;11.60;99.90
52543;DHT22;38449;52.696;6.186;2022-11-15T10:10:29;11.70;99.90
52543;DHT22;38449;52.696;6.186;2022-11-15T10:12:56;11.70;99.90
52543;DHT22;38449;52.696;6.186;2022-11-15T10:15:23;11.70;99.90
52543;DHT22;38449;52.696;6.186;2022-11-15T10:17:54;11.70;99.90
52543;DHT22;38449;52.696;6.186;2022-11-15T10:20:24;11.80;99.90
52543;DHT22;38449;52.696;6.186;2022-11-15T10:22:53;11.80;99.90
52543;DHT22;38449;52.696;6.186;2022-11-15T10:25:32;11.90;99.90
52543;DHT22;38449;52.696;6.186;2022-11-15T10:28:17;11.90;99.90
52543;DHT22;38449;52.696;6.186;2022-11-15T10:30:49;11.90;99.90
52543;DHT22;38449;52.696;6.186;2022-11-15T10:38:53;12.00;99.90
52543;DHT22;38449;52.696;6.186;2022-11-15T10:44:16;12.00;99.90
52543;DHT22;38449;52.696;6.186;2022-11-15T10:49:22;12.00;99.90
52543;DHT22;38449;52.696;6.186;2022-11-15T10:52:15;12.00;99.90
52543;DHT22;38449;52.696;6.186;2022-11-15T10:54:42;12.00;99.90
52543;DHT22;38449;52.696;6.186;2022-11-15T10:57:15;12.10;99.90
52543;DHT22;38449;52.696;6.186;2022-11-15T10:59:50;12.10;99.90
52543;DHT22;38449;52.696;6.186;2022-11-15T11:04:54;12.20;99.90
52543;DHT22;38449;52.696;6.186;2022-11-15T11:07:22;12.30;99.90
52543;DHT22;38449;52.696;6.186;2022-11-15T11:10:04;12.40;99.90
52543;DHT22;38449;52.696;6.186;2022-11-15T11:12:33;12.40;99.90
52543;DHT22;38449;52.696;6.186;2022-11-15T11:15:01;12.40;99.90
52543;DHT22;38449;52.696;6.186;2022-11-15T11:17:36;12.50;99.90
52543;DHT22;38449;52.696;6.186;2022-11-15T11:48:53;13.10;99.90
52543;DHT22;38449;52.696;6.186;2022-11-15T11:51:30;13.00;99.90
52543;DHT22;38449;52.696;6.186;2022-11-15T11:54:05;13.00;99.90
52543;DHT22;38449;52.696;6.186;2022-11-15T11:56:33;13.10;99.90
52543;DHT22;38449;52.696;6.186;2022-11-15T11:59:25;13.00;99.90
52543;DHT22;38449;52.696;6.186;2022-11-15T12:01:51;13.10;99.90
52543;DHT22;38449;52.696;6.186;2022-11-15T12:04:27;13.10;99.90
52543;DHT22;38449;52.696;6.186;2022-11-15T12:09:41;13.20;99.90
52543;DHT22;38449;52.696;6.186;2022-11-15T12:14:59;13.30;99.90
52543;DHT22;38449;52.696;6.186;2022-11-15T12:17:29;13.30;99.90
52543;DHT22;38449;52.696;6.186;2022-11-15T12:20:03;13.20;99.90
52543;DHT22;38449;52.696;6.186;2022-11-15T12:22:58;13.20;99.90
52543;DHT22;38449;52.696;6.186;2022-11-15T12:26:11;13.10;99.90
52543;DHT22;38449;52.696;6.186;2022-11-15T12:28:37;13.10;99.90
52543;DHT22;38449;52.696;6.186;2022-11-15T12:31:15;13.10;99.90
52543;DHT22;38449;52.696;6.186;2022-11-15T12:33:44;13.10;99.90
52543;DHT22;38449;52.696;6.186;2022-11-15T12:38:58;13.10;99.90
52543;DHT22;38449;52.696;6.186;2022-11-15T12:41:32;13.10;99.90
52543;DHT22;38449;52.696;6.186;2022-11-15T12:43:58;13.10;99.90
52543;DHT22;38449;52.696;6.186;2022-11-15T12:49:11;13.10;99.90
52543;DHT22;38449;52.696;6.186;2022-11-15T12:59:54;12.90;99.90
52543;DHT22;38449;52.696;6.186;2022-11-15T13:02:44;12.90;99.90
52543;DHT22;38449;52.696;6.186;2022-11-15T13:17:44;12.80;99.90
52543;DHT22;38449;52.696;6.186;2022-11-15T13:22:42;12.60;99.90
52543;DHT22;38449;52.696;6.186;2022-11-15T13:28:01;12.60;99.90
52543;DHT22;38449;52.696;6.186;2022-11-15T13:30:29;12.60;99.90
52543;DHT22;38449;52.696;6.186;2022-11-15T13:32:58;12.60;99.90
52543;DHT22;38449;52.696;6.186;2022-11-15T13:35:27;12.60;99.90
52543;DHT22;38449;52.696;6.186;2022-11-15T13:37:55;12.60;99.90
52543;DHT22;38449;52.696;6.186;2022-11-15T13:40:25;12.60;99.90
52543;DHT22;38449;52.696;6.186;2022-11-15T13:42:53;12.60;99.90
52543;DHT22;38449;52.696;6.186;2022-11-15T13:45:19;12.60;99.90
52543;DHT22;38449;52.696;6.186;2022-11-15T13:47:47;12.60;99.90
52543;DHT22;38449;52.696;6.186;2022-11-15T13:50:16;12.50;99.90
52543;DHT22;38449;52.696;6.186;2022-11-15T13:52:43;12.50;99.90
52543;DHT22;38449;52.696;6.186;2022-11-15T13:55:17;12.40;99.90
52543;DHT22;38449;52.696;6.186;2022-11-15T13:58:04;12.50;99.90
52543;DHT22;38449;52.696;6.186;2022-11-15T14:00:42;12.40;99.90
52543;DHT22;38449;52.696;6.186;2022-11-15T14:03:21;12.40;99.90
52543;DHT22;38449;52.696;6.186;2022-11-15T14:06:06;12.30;99.90
52543;DHT22;38449;52.696;6.186;2022-11-15T14:08:33;12.30;99.90
52543;DHT22;38449;52.696;6.186;2022-11-15T14:11:15;12.20;99.90
52543;DHT22;38449;52.696;6.186;2022-11-15T14:13:42;12.20;99.90
52543;DHT22;38449;52.696;6.186;2022-11-15T14:19:02;12.20;99.90
52543;DHT22;38449;52.696;6.186;2022-11-15T14:21:28;12.20;99.90
52543;DHT22;38449;52.696;6.186;2022-11-15T14:24:17;12.20;99.90
52543;DHT22;38449;52.696;6.186;2022-11-15T14:26:44;12.20;99.90
52543;DHT22;38449;52.696;6.186;2022-11-15T14:29:26;12.20;99.90
52543;DHT22;38449;52.696;6.186;2022-11-15T14:31:53;12.10;99.90
52543;DHT22;38449;52.696;6.186;2022-11-15T14:34:19;12.10;99.90
52543;DHT22;38449;52.696;6.186;2022-11-15T14:36:47;12.10;99.90
52543;DHT22;38449;52.696;6.186;2022-11-15T14:39:13;12.10;99.90
52543;DHT22;38449;52.696;6.186;2022-11-15T14:41:38;12.10;99.90
52543;DHT22;38449;52.696;6.186;2022-11-15T14:44:04;12.00;99.90
52543;DHT22;38449;52.696;6.186;2022-11-15T14:46:30;12.00;99.90
52543;DHT22;38449;52.696;6.186;2022-11-15T14:48:56;12.00;99.90
52543;DHT22;38449;52.696;6.186;2022-11-15T14:51:22;11.90;99.90
52543;DHT22;38449;52.696;6.186;2022-11-15T14:53:48;12.00;99.90
52543;DHT22;38449;52.696;6.186;2022-11-15T14:56:14;12.00;99.90
52543;DHT22;38449;52.696;6.186;2022-11-15T14:58:40;11.90;99.90
52543;DHT22;38449;52.696;6.186;2022-11-15T15:01:17;11.90;99.90
52543;DHT22;38449;52.696;6.186;2022-11-15T15:03:43;11.90;99.90
52543;DHT22;38449;52.696;6.186;2022-11-15T15:06:09;11.90;99.90
52543;DHT22;38449;52.696;6.186;2022-11-15T15:08:35;11.80;99.90
52543;DHT22;38449;52.696;6.186;2022-11-15T15:11:01;11.80;99.90
52543;DHT22;38449;52.696;6.186;2022-11-15T15:13:26;11.80;99.90
52543;DHT22;38449;52.696;6.186;2022-11-15T15:15:54;11.80;99.90
52543;DHT22;38449;52.696;6.186;2022-11-15T15:18:19;11.80;99.90
52543;DHT22;38449;52.696;6.186;2022-11-15T15:20:49;11.80;99.90
52543;DHT22;38449;52.696;6.186;2022-11-15T15:23:19;11.80;99.90
52543;DHT22;38449;52.696;6.186;2022-11-15T15:25:46;11.70;99.90
52543;DHT22;38449;52.696;6.186;2022-11-15T15:28:14;11.70;99.90
52543;DHT22;38449;52.696;6.186;2022-11-15T15:30:40;11.60;99.90
52543;DHT22;38449;52.696;6.186;2022-11-15T15:33:05;11.60;99.90
52543;DHT22;38449;52.696;6.186;2022-11-15T15:35:33;11.60;99.90
52543;DHT22;38449;52.696;6.186;2022-11-15T15:37:59;11.50;99.90
52543;DHT22;38449;52.696;6.186;2022-11-15T15:40:28;11.50;99.90
52543;DHT22;38449;52.696;6.186;2022-11-15T15:42:54;11.50;99.90
52543;DHT22;38449;52.696;6.186;2022-11-15T15:45:20;11.40;99.90
52543;DHT22;38449;52.696;6.186;2022-11-15T15:47:46;11.40;99.90
52543;DHT22;38449;52.696;6.186;2022-11-15T15:50:29;11.40;99.90
52543;DHT22;38449;52.696;6.186;2022-11-15T15:52:57;11.40;99.90
52543;DHT22;38449;52.696;6.186;2022-11-15T15:55:23;11.40;99.90
52543;DHT22;38449;52.696;6.186;2022-11-15T15:57:49;11.40;99.90
52543;DHT22;38449;52.696;6.186;2022-11-15T16:00:16;11.50;99.90
52543;DHT22;38449;52.696;6.186;2022-11-15T16:02:42;11.50;99.90
52543;DHT22;38449;52.696;6.186;2022-11-15T16:05:09;11.50;99.90
52543;DHT22;38449;52.696;6.186;2022-11-15T16:07:35;11.50;99.90
52543;DHT22;38449;52.696;6.186;2022-11-15T16:10:02;11.50;99.90
52543;DHT22;38449;52.696;6.186;2022-11-15T16:12:29;11.50;99.90
52543;DHT22;38449;52.696;6.186;2022-11-15T16:14:55;11.50;99.90
52543;DHT22;38449;52.696;6.186;2022-11-15T16:17:24;11.50;99.90
52543;DHT22;38449;52.696;6.186;2022-11-15T16:19:50;11.60;99.90
52543;DHT22;38449;52.696;6.186;2022-11-15T16:22:16;11.60;99.90
52543;DHT22;38449;52.696;6.186;2022-11-15T16:24:42;11.70;99.90
52543;DHT22;38449;52.696;6.186;2022-11-15T16:27:15;11.80;99.90
52543;DHT22;38449;52.696;6.186;2022-11-15T16:29:41;11.90;99.90
52543;DHT22;38449;52.696;6.186;2022-11-15T16:32:06;12.00;99.90
52543;DHT22;38449;52.696;6.186;2022-11-15T16:34:32;12.10;99.90
52543;DHT22;38449;52.696;6.186;2022-11-15T16:36:57;12.10;99.90
52543;DHT22;38449;52.696;6.186;2022-11-15T16:39:23;12.10;99.90
52543;DHT22;38449;52.696;6.186;2022-11-15T16:41:49;12.20;99.90
52543;DHT22;38449;52.696;6.186;2022-11-15T16:44:14;12.10;99.90
52543;DHT22;38449;52.696;6.186;2022-11-15T16:46:41;12.10;99.90
52543;DHT22;38449;52.696;6.186;2022-11-15T16:49:14;12.10;99.90
52543;DHT22;38449;52.696;6.186;2022-11-15T16:51:40;12.10;99.90
52543;DHT22;38449;52.696;6.186;2022-11-15T16:54:06;12.10;99.90
52543;DHT22;38449;52.696;6.186;2022-11-15T16:56:33;11.90;99.90
52543;DHT22;38449;52.696;6.186;2022-11-15T16:59:00;12.00;99.90
52543;DHT22;38449;52.696;6.186;2022-11-15T17:01:28;12.10;99.90
52543;DHT22;38449;52.696;6.186;2022-11-15T17:03:54;12.00;99.90
52543;DHT22;38449;52.696;6.186;2022-11-15T17:06:21;12.00;99.90
52543;DHT22;38449;52.696;6.186;2022-11-15T17:08:47;12.00;99.90
52543;DHT22;38449;52.696;6.186;2022-11-15T17:11:20;12.00;99.90
52543;DHT22;38449;52.696;6.186;2022-11-15T17:13:47;12.00;99.90
52543;DHT22;38449;52.696;6.186;2022-11-15T17:16:15;12.00;99.90
52543;DHT22;38449;52.696;6.186;2022-11-15T17:18:42;12.00;99.90
52543;DHT22;38449;52.696;6.186;2022-11-15T17:21:15;12.00;99.90
52543;DHT22;38449;52.696;6.186;2022-11-15T17:23:41;12.00;99.90
52543;DHT22;38449;52.696;6.186;2022-11-15T17:26:08;12.00;99.90
52543;DHT22;38449;52.696;6.186;2022-11-15T17:28:36;12.00;99.90
52543;DHT22;38449;52.696;6.186;2022-11-15T17:31:06;12.00;99.90
52543;DHT22;38449;52.696;6.186;2022-11-15T17:33:31;12.00;99.90